Aldrich, Minnesota
Current Conditions -  °F | °C
As of 8:53 PM on Monday 22 Dec 2014 (Local Time) from KSAZ Reporting Station
Light Rain Light Rain  
Wind Chill: 27°   Ceiling: 500
Heat Index: 32°   Visibility: 2mi
Dew Point: 32°   Wind: 5mph
Humidity: 100%   Direction: 80°E
Pressure: 29.64"   Gusts: NA
Location:  46.38°N, 94.94°W
Report Text: KSAZ 230253Z AUTO 08004KT 2SM -RA OVC005 00/00 A2964 RMK AO2
Loading
Personal Weather Stations






























Interactive Weather Map New forecast layout! Learn more

10-Day Weather Forecast

Advertisements
Track Severe Weather on mobile